Time;durP1;ratioP1;P1;durP2;ratioP2;P2;SDS_P1;SDS_P2;PMS_P1;PMS_P2;Temp;Humidity;BMP_temperature;BMP_pressure;BME280_temperature;BME280_humidity;BME280_pressure;Samples;Min_cycle;Max_cycle;Signal;HPM_P1;HPM_P2
2022/05/11 00:01:12;;;;;;;;;;;;;;;13.61;55.35;98338.27;1640400;86;214746;-83
2022/05/11 00:03:39;;;;;;;7.22;3.08;;;;;;;13.58;55.54;98334.59;1658313;85;137873;-83
2022/05/11 00:06:05;;;;;;;8.25;3.62;;;;;;;13.54;55.75;98337.94;1663693;85;28150;-83
2022/05/11 00:08:32;;;;;;;5.58;2.95;;;;;;;13.52;56.01;98326.73;1665282;85;28035;-83
2022/05/11 00:10:58;;;;;;;5.70;2.70;;;;;;;13.51;56.32;98327.69;1671165;85;28182;-83
2022/05/11 00:13:28;;;;;;;4.40;3.15;;;;;;;13.49;56.52;98326.14;1667469;84;28076;-83
2022/05/11 00:15:55;;;;;;;4.42;3.27;;;;;;;13.47;56.71;98322.83;1670532;84;28142;-83
2022/05/11 00:18:23;;;;;;;7.23;3.10;;;;;;;13.44;56.90;98324.37;1667508;84;28080;-83
2022/05/11 00:20:49;;;;;;;;;;;;;;;13.43;57.07;98324.02;1676538;84;26077;-83
2022/05/11 00:23:15;;;;;;;;;;;;;;;13.41;57.27;98325.48;1675978;85;25200;-83
2022/05/11 00:25:41;;;;;;;;;;;;;;;13.38;57.48;98320.46;1676570;84;20867;-83
2022/05/11 00:28:07;;;;;;;;;;;;;;;13.38;57.65;98318.67;1675633;84;20338;-83
2022/05/11 00:30:33;;;;;;;;;;;;;;;13.35;57.82;98316.31;1675661;84;21991;-83
2022/05/11 00:33:00;;;;;;;;;;;;;;;13.34;58.06;98313.80;1668767;85;20983;-83
2022/05/11 00:35:27;;;;;;;;;;;;;;;13.33;58.22;98318.22;1675147;85;24476;-83
2022/05/11 00:37:55;;;;;;;;;;;;;;;13.30;58.41;98319.80;1654373;85;20514;-83
2022/05/11 00:40:22;;;;;;;;;;;;;;;13.28;58.57;98323.02;1645514;85;25245;-83
2022/05/11 00:42:48;;;;;;;;;;;;;;;13.27;58.81;98321.35;1676705;85;22090;-83
2022/05/11 00:45:14;;;;;;;;;;;;;;;13.27;59.04;98316.58;1633856;85;25991;-83
2022/05/11 00:47:42;;;;;;;;;;;;;;;13.27;59.29;98323.14;1681690;84;20379;-83
2022/05/11 00:50:09;;;;;;;;;;;;;;;13.25;59.46;98322.45;1677425;84;20244;-83
2022/05/11 00:52:52;;;;;;;;;;;;;;;13.24;59.68;98319.47;1675413;84;24769;-83
2022/05/11 00:55:21;;;;;;;;;;;;;;;13.22;59.89;98320.90;1657162;85;22556;-83
2022/05/11 00:57:58;;;;;;;;;;;;;;;13.20;60.17;98320.17;1665817;83;26155;-83
2022/05/11 01:00:25;;;;;;;;;;;;;;;13.18;60.38;98323.91;1675563;85;24468;-83
2022/05/11 01:02:58;;;;;;;;;;;;;;;13.18;60.62;98321.28;1666946;84;20191;-83
2022/05/11 01:05:25;;;;;;;;;;;;;;;13.16;60.82;98320.09;1660931;85;25018;-83
2022/05/11 01:07:57;;;;;;;;;;;;;;;13.17;61.07;98322.23;1668891;84;22160;-83
2022/05/11 01:10:25;;;;;;;;;;;;;;;13.16;61.28;98320.09;1671274;85;26092;-83
2022/05/11 01:12:53;;;;;;;;;;;;;;;13.17;61.53;98313.04;1671150;84;24412;-83
2022/05/11 01:15:20;;;;;;;;;;;;;;;13.16;61.89;98311.36;1671543;85;20252;-83
2022/05/11 01:17:46;;;;;;;;;;;;;;;13.11;62.13;98311.72;1669838;85;25063;-83
2022/05/11 01:20:20;;;;;;;;;;;;;;;13.10;62.34;98306.58;1668146;85;22101;-83
2022/05/11 01:22:48;;;;;;;;;;;;;;;13.10;62.63;98305.27;1668049;84;26800;-83
2022/05/11 01:25:15;;;;;;;;;;;;;;;13.10;62.95;98298.70;1675204;85;24478;-83
2022/05/11 01:27:43;;;;;;;;;;;;;;;13.09;63.19;98301.80;1649028;86;20276;-83
2022/05/11 01:30:10;;;;;;;;;;;;;;;13.07;63.40;98298.96;1629634;86;25685;-83
2022/05/11 01:32:37;;;;;;;;;;;;;;;13.08;63.66;98301.95;1639184;86;22077;-83
2022/05/11 01:35:07;;;;;;;;;;;;;;;13.08;63.88;98302.78;1672999;84;26160;-83
2022/05/11 01:37:35;;;;;;;;;;;;;;;13.08;64.10;98301.95;1669539;83;24443;-82
2022/05/11 01:40:02;;;;;;;;;;;;;;;13.05;64.28;98301.70;1674819;84;20487;-83
2022/05/11 01:42:28;;;;;;;;;;;;;;;13.07;64.51;98298.96;1677380;84;25571;-83
2022/05/11 01:44:54;;;;;;;;;;;;;;;13.06;64.72;98293.34;1673877;84;21983;-83
2022/05/11 01:47:21;;;;;;;;;;;;;;;13.07;64.98;98291.08;1679986;84;25881;-83
2022/05/11 01:49:49;;;;;;;;;;;;;;;13.03;65.18;98289.67;1678227;85;20478;-83
2022/05/11 01:52:15;;;;;;;;;;;;;;;13.04;65.37;98292.66;1677816;84;20244;-83
2022/05/11 01:54:41;;;;;;;;;;;;;;;13.04;65.55;98292.66;1678641;84;20861;-83
2022/05/11 01:57:07;;;;;;;;;;;;;;;13.03;65.74;98298.39;1676243;84;20921;-83
2022/05/11 01:59:34;;;;;;;;;;;;;;;13.05;65.99;98293.83;1676130;85;25985;-83
2022/05/11 02:02:00;;;;;;;;;;;;;;;13.04;66.19;98295.28;1678439;84;24502;-83
2022/05/11 02:10:02;;;;;;;;;;;;;;;13.03;66.81;98281.80;1623306;88;22821;-83
2022/05/11 02:12:28;;;;;;;;;;;;;;;12.98;67.03;98285.61;1679414;84;26001;-83
2022/05/11 02:14:54;;;;;;;;;;;;;;;13.00;67.27;98277.13;1675637;84;24496;-83
2022/05/11 02:17:21;;;;;;;;;;;;;;;13.00;67.45;98285.02;1678744;84;20441;-82
2022/05/11 02:19:47;;;;;;;;;;;;;;;12.97;67.62;98279.19;1679262;84;25099;-83
2022/05/11 02:22:14;;;;;;;;;;;;;;;12.96;67.87;98274.41;1674277;84;20886;-83
2022/05/11 02:24:41;;;;;;;;;;;;;;;12.97;68.09;98277.87;1675871;84;26037;-83
2022/05/11 02:27:08;;;;;;;;;;;;;;;12.98;68.34;98272.98;1678958;84;25271;-83
2022/05/11 02:29:34;;;;;;;;;;;;;;;12.95;68.48;98276.67;1674112;84;20241;-83
2022/05/11 02:32:02;;;;;;;;;;;;;;;12.94;68.65;98272.86;1677607;84;20310;-83
2022/05/11 02:37:12;;;;;;;;;;;;;;;12.91;68.98;98270.02;1676047;84;26047;-83
2022/05/11 02:39:38;;;;;;;;;;;;;;;12.90;69.23;98270.97;1676619;84;20251;-83
2022/05/11 02:42:04;;;;;;;;;;;;;;;12.88;69.41;98267.62;1631770;87;20240;-83
2022/05/11 02:44:30;;;;;;;;;;;;;;;12.86;69.60;98268.25;1675758;84;25009;-83
2022/05/11 02:46:56;;;;;;;;;;;;;;;12.82;69.72;98267.31;1680057;85;20272;-83
2022/05/11 02:49:22;;;;;;;;;;;;;;;12.81;69.92;98269.58;1676026;85;21177;-83
2022/05/11 02:51:48;;;;;;;;;;;;;;;12.80;70.12;98270.53;1637543;86;20277;-83
2022/05/11 02:54:14;;;;;;;;;;;;;;;12.80;70.28;98273.16;1637933;86;20319;-83
2022/05/11 02:56:41;;;;;;;;;;;;;;;12.77;70.47;98271.60;1628648;86;20762;-83
2022/05/11 02:59:08;;;;;;;;;;;;;;;12.76;70.64;98259.94;1631330;85;22142;-83
2022/05/11 03:01:34;;;;;;;;;;;;;;;12.74;70.87;98261.84;1640710;86;26116;-83
2022/05/11 03:04:00;;;;;;;;;;;;;;;12.75;71.09;98268.77;1634295;86;24520;-83
2022/05/11 03:06:26;;;;;;;;;;;;;;;12.76;71.27;98277.00;1637954;86;20679;-83
2022/05/11 03:08:52;;;;;;;;;;;;;;;12.76;71.50;98272.59;1637169;86;20213;-83
2022/05/11 03:11:18;;;;;;;;;;;;;;;12.75;71.73;98275.33;1629825;86;21993;-83
2022/05/11 03:13:46;;;;;;;;;;;;;;;12.75;71.95;98270.08;1636610;86;21425;-83
2022/05/11 03:16:12;;;;;;;;;;;;;;;12.76;72.16;98268.65;1635617;86;24437;-83
2022/05/11 03:18:41;;;;;;;;;;;;;;;12.76;72.39;98267.34;1630356;86;20192;-83
2022/05/11 03:21:07;;;;;;;;;;;;;;;12.80;72.66;98258.72;1636977;86;25058;-83
2022/05/11 03:23:33;;;;;;;;;;;;;;;12.81;72.91;98258.59;1651369;85;20261;-83
2022/05/11 03:25:59;;;;;;;;;;;;;;;12.82;73.16;98262.87;1686809;84;26019;-83
2022/05/11 03:28:26;;;;;;;;;;;;;;;12.82;73.30;98263.37;1686982;84;24569;-83
2022/05/11 03:30:52;;;;;;;;;;;;;;;12.86;73.54;98255.11;1684887;84;20530;-83
2022/05/11 03:36:07;;;;;;;;;;;;;;;12.88;73.89;98262.84;1689780;84;21995;-83
2022/05/11 03:38:33;;;;;;;;;;;;;;;12.92;74.13;98256.41;1683112;84;26706;-83
2022/05/11 03:40:59;;;;;;;;;;;;;;;12.93;74.34;98256.25;1684678;83;24517;-83
2022/05/11 03:43:25;;;;;;;;;;;;;;;12.93;74.48;98261.51;1686973;84;20331;-83
2022/05/11 03:45:51;;;;;;;;;;;;;;;12.96;74.63;98265.70;1680793;83;24949;-83
2022/05/11 03:48:17;;;;;;;;;;;;;;;12.98;74.83;98262.47;1650432;86;22153;-84
2022/05/11 03:50:43;;;;;;;;;;;;;;;13.01;75.06;98266.14;1651516;86;21044;-83
2022/05/11 03:53:12;;;;;;;;;;;;;;;13.05;75.25;98258.36;1651859;85;20289;-83
2022/05/11 03:55:39;;;;;;;;;;;;;;;13.07;75.47;98255.61;1673404;85;20209;-84
2022/05/11 03:58:05;;;;;;;;;;;;;;;13.11;75.72;98259.64;1672438;85;25013;-83
2022/05/11 04:00:32;;;;;;;;;;;;;;;13.17;75.97;98255.23;1646597;86;20844;-83
2022/05/11 04:02:58;;;;;;;;;;;;;;;13.24;76.21;98259.02;1683137;84;26691;-83
2022/05/11 04:05:25;;;;;;;;;;;;;;;13.31;76.42;98254.93;1675796;85;24690;-83
2022/05/11 04:07:51;;;;;;;;;;;;;;;13.32;76.46;98260.04;1672507;85;20323;-83
2022/05/11 04:10:18;;;;;;;;;;;;;;;13.34;76.71;98255.97;1674147;83;20266;-83
2022/05/11 04:12:43;;;;;;;;;;;;;;;13.39;77.03;98256.42;1646764;86;22049;-83
2022/05/11 04:15:11;;;;;;;;;;;;;;;13.45;77.20;98258.53;1651724;86;20991;-83
2022/05/11 04:17:37;;;;;;;;;;;;;;;13.49;77.32;98257.30;1659720;86;25248;-83
2022/05/11 04:20:07;;;;;;;;;;;;;;;13.52;77.42;98257.55;1655508;86;20487;-83
2022/05/11 04:22:34;;;;;;;;;;;;;;;13.56;77.50;98258.47;1672459;84;25618;-83
2022/05/11 04:25:00;;;;;;;;;;;;;;;13.64;77.65;98265.20;1646014;86;22248;-83
2022/05/11 04:27:26;;;;;;;;;;;;;;;13.73;77.89;98260.98;1678994;84;26020;-83
2022/05/11 04:29:53;;;;;;;;;;;;;;;13.78;77.97;98260.09;1656207;84;20833;-83
2022/05/11 04:32:19;;;;;;;;;;;;;;;13.79;78.05;98259.98;1666787;84;20193;-83
2022/05/11 04:34:46;;;;;;;;;;;;;;;13.82;78.17;98266.27;1657649;85;20299;-83
2022/05/11 04:37:14;;;;;;;;;;;;;;;13.86;78.26;98262.05;1651848;85;22112;-83
2022/05/11 04:39:40;;;;;;;;;;;;;;;13.90;78.46;98265.63;1666232;84;26103;-83
2022/05/11 04:42:07;;;;;;;;;;;;;;;13.95;78.48;98274.44;1677949;84;24558;-83
2022/05/11 04:44:33;;;;;;;;;;;;;;;14.01;78.55;98262.08;1676904;84;20213;-83
2022/05/11 04:47:07;;;;;;;;;;;;;;;14.09;78.72;98264.86;1680300;84;20544;-83
2022/05/11 04:49:33;;;;;;;;;;;;;;;14.16;78.83;98268.63;1655909;86;22753;-83
2022/05/11 04:52:01;;;;;;;;;;;;;;;14.21;79.02;98261.16;1674017;84;20951;-84
2022/05/11 04:54:33;;;;;;;;;;;;;;;14.31;79.10;98270.40;1670788;85;25127;-83
2022/05/11 04:56:59;;;;;;;;;;;;;;;14.37;79.25;98268.09;1666731;84;20226;-83
2022/05/11 04:59:25;;;;;;;;;;;;;;;14.45;79.43;98276.66;1678860;84;20318;-83
2022/05/11 05:01:51;;;;;;;;;;;;;;;14.51;79.58;98265.07;1653399;85;22641;-83
2022/05/11 05:04:19;;;;;;;;;;;;;;;14.64;79.76;98268.77;1678019;84;26038;-83
2022/05/11 05:06:46;;;;;;;;;;;;;;;14.79;80.09;98278.42;1646572;86;24409;-83
2022/05/11 05:09:13;;;;;;;;;;;;;;;14.93;80.23;98277.55;1660422;85;20221;-83
2022/05/11 05:11:39;;;;;;;;;;;;;;;15.10;80.32;98276.03;1669351;85;25061;-83
2022/05/11 05:14:06;;;;;;;;;;;;;;;15.27;80.51;98273.17;1663566;85;20774;-83
2022/05/11 05:16:33;;;;;;;;;;;;;;;15.48;80.76;98268.56;1678412;84;26299;-83
2022/05/11 05:18:59;;;;;;;;;;;;;;;15.69;80.95;98269.72;1674500;84;24533;-83
2022/05/11 05:21:25;;;;;;;;;;;;;;;15.88;81.01;98272.28;1680715;84;20371;-83
2022/05/11 05:23:52;;;;;;;;;;;;;;;16.08;81.08;98273.06;1674556;84;25027;-83
2022/05/11 05:26:20;;;;;;;;;;;;;;;16.23;81.08;98272.91;1649981;85;21983;-83
2022/05/11 05:31:31;;;;;;;;;;;;;;;16.39;80.74;98271.79;1657749;85;24727;-83
2022/05/11 05:34:00;;;;;;;;;;;;;;;16.46;80.62;98270.72;1662907;85;20720;-83
2022/05/11 05:36:28;;;;;;;;;;;;;;;16.54;80.36;98268.98;1658730;85;25062;-83
2022/05/11 05:38:55;;;;;;;;;;;;;;;16.60;80.30;98268.91;1660578;85;21987;-83
2022/05/11 05:41:22;;;;;;;;;;;;;;;16.64;80.19;98271.10;1671618;85;26029;-83
2022/05/11 05:43:57;;;;;;;;;;;;;;;16.69;80.31;98269.36;1680925;85;24412;-83
2022/05/11 05:46:24;;;;;;;;;;;;;;;16.73;80.26;98266.75;1680487;84;20288;-83
2022/05/11 05:48:54;;;;;;;;;;;;;;;16.77;80.23;98269.42;1681835;84;24974;-83
2022/05/11 05:51:22;;;;;;;;;;;;;;;16.83;80.10;98265.35;1681126;84;21998;-83
2022/05/11 05:53:48;;;;;;;;;;;;;;;16.92;80.07;98267.91;1648072;85;26887;-83
2022/05/11 05:56:14;;;;;;;;;;;;;;;17.01;80.23;98271.48;1688783;83;20270;-83
2022/05/11 05:58:42;;;;;;;;;;;;;;;17.11;80.35;98266.45;1655297;86;20274;-83
2022/05/11 06:01:08;;;;;;;;;;;;;;;17.23;80.46;98270.19;1650320;86;25812;-83
2022/05/11 06:03:35;;;;;;;;;;;;;;;17.32;80.19;98269.26;1651532;86;22106;-83
2022/05/11 06:06:01;;;;;;;;;;;;;;;17.39;80.08;98276.93;1653312;86;26060;-83
2022/05/11 06:08:30;;;;;;;;;;;;;;;17.40;79.83;98274.62;1656423;86;24159;-83
2022/05/11 06:10:57;;;;;;;;;;;;;;;17.42;79.67;98280.09;1653431;86;20283;-83
2022/05/11 06:13:23;;;;;;;;;;;;;;;17.43;79.35;98279.59;1656617;86;25006;-83
2022/05/11 06:15:50;;;;;;;;;;;;;;;17.47;79.11;98274.33;1655332;86;22074;-83
2022/05/11 06:18:20;;;;;;;;;;;;;;;17.57;79.34;98273.73;1654739;86;26731;-83
2022/05/11 06:20:51;;;;;;;;;;;;;;;17.63;79.33;98277.13;1655190;86;24689;-83
2022/05/11 06:23:14;;;;;;;;;;;;;;;17.72;79.56;98274.89;1687160;84;20328;-84
2022/05/11 06:25:40;;;;;;;;;;;;;;;17.82;79.69;98280.91;1672129;85;24967;-83
2022/05/11 06:28:10;;;;;;;;;;;;;;;17.88;79.58;98282.09;1652677;86;20300;-83
2022/05/11 06:30:34;;;;;;;;;;;;;;;17.91;79.59;98281.77;1663415;85;26081;-83
2022/05/11 06:33:00;;;;;;;;;;;;;;;17.97;79.58;98280.66;1681457;84;24538;-83
2022/05/11 06:35:27;;;;;;;;;;;;;;;18.02;79.52;98287.28;1648402;86;20228;-83
2022/05/11 06:37:57;;;;;;;;;;;;;;;18.10;79.26;98290.83;1655195;86;25021;-83
2022/05/11 06:40:22;;;;;;;;;;;;;;;18.17;79.20;98289.67;1679561;84;22610;-83
2022/05/11 06:42:49;;;;;;;;;;;;;;;18.25;79.28;98285.27;1671947;85;26028;-83
2022/05/11 06:45:15;;;;;;;;;;;;;;;18.31;79.22;98285.95;1684549;84;24753;-83
2022/05/11 06:47:42;;;;;;;;;;;;;;;18.43;79.16;98292.30;1681904;84;20267;-83
2022/05/11 06:50:09;;;;;;;;;;;;;;;18.51;78.96;98287.84;1682202;84;25048;-83
2022/05/11 06:52:35;;;;;;;;;;;;;;;18.60;78.78;98286.89;1682563;84;22117;-84
2022/05/11 07:00:36;;;;;;;;;;;;;;;18.83;77.76;98284.97;1683200;84;20314;-83
2022/05/11 07:03:02;;;;;;;;;;;;;;;18.94;77.63;98282.00;1683719;84;20777;-83
2022/05/11 07:05:32;;;;;;;;;;;;;;;19.02;77.41;98280.70;1679915;84;21966;-83
2022/05/11 07:07:58;;;;;;;;;;;;;;;19.14;76.87;98283.38;1660935;84;26008;-83
2022/05/11 07:10:25;;;;;;;;;;;;;;;19.23;76.81;98277.91;1681517;84;24568;-83
2022/05/11 07:12:51;;;;;;;;;;;;;;;19.35;76.73;98275.76;1681792;85;20180;-83
2022/05/11 07:15:18;;;;;;;;;;;;;;;19.41;76.38;98280.41;1657392;84;24975;-84
2022/05/11 07:17:49;;;;;;;;;;;;;;;19.49;76.14;98270.30;1685858;84;21500;-84
2022/05/11 07:20:18;;;;;;;;;;;;;;;19.60;75.68;98272.61;1683147;84;26696;-84
2022/05/11 07:22:44;;;;;;;;;;;;;;;19.71;75.26;98270.10;1680684;84;24520;-83
2022/05/11 07:25:12;;;;;;;;;;;;;;;19.81;74.93;98266.27;1682027;84;20487;-84
2022/05/11 07:27:39;;;;;;;;;;;;;;;19.92;74.49;98262.42;1683659;84;24981;-84
2022/05/11 07:30:26;;;;;;;;;;;;;;;20.02;74.54;98271.84;1683022;84;21946;-83
2022/05/11 07:32:52;;;;;;;;;;;;;;;20.12;73.82;98266.36;1646646;85;26132;-84
2022/05/11 07:35:19;;;;;;;;;;;;;;;20.25;73.32;98269.28;1644142;87;25243;-84
2022/05/11 07:37:48;;;;;;;;;;;;;;;20.33;73.33;98263.98;1645947;87;20251;-84
2022/05/11 07:40:18;;;;;;;;;;;;;;;20.42;73.08;98262.94;1645185;86;21420;-84
2022/05/11 07:42:45;;;;;;;;;;;;;;;20.47;73.13;98254.44;1642548;87;22099;-84
2022/05/11 07:45:12;;;;;;;;;;;;;;;20.67;72.80;98260.17;1643033;87;25972;-84
2022/05/11 07:47:39;;;;;;;;;;;;;;;20.83;72.56;98254.25;1657992;85;24589;-84
2022/05/11 07:50:06;;;;;;;;;;;;;;;20.97;72.61;98252.64;1658577;86;20313;-84
2022/05/11 07:52:38;;;;;;;;;;;;;;;21.10;72.18;98248.07;1658160;85;24979;-84
2022/05/11 07:55:04;;;;;;;;;;;;;;;21.23;71.60;98249.14;1658510;86;22095;-84
2022/05/11 08:00:15;;;;;;;;;;;;;;;21.52;70.95;98243.08;1659140;86;24477;-84
2022/05/11 08:02:41;;;;;;;;;;;;;;;21.68;70.71;98236.76;1662713;84;20244;-85
2022/05/11 08:05:09;;;;;;;;;;;;;;;21.80;69.82;98239.80;1659581;86;20249;-84
2022/05/11 08:07:40;;;;;;;;;;;;;;;21.85;68.91;98235.58;1655846;86;22001;-84
2022/05/11 08:10:20;;;;;;;;;;;;;;;21.87;68.17;98234.91;1658116;86;26574;-84
2022/05/11 08:12:46;;;;;;;;;;;;;;;21.95;68.19;98236.16;1658544;85;24440;-85
2022/05/11 08:15:13;;;;;;;;;;;;;;;22.00;67.82;98234.28;1657542;86;20506;-85
2022/05/11 08:17:42;;;;;;;;;;;;;;;22.06;67.36;98230.38;1659107;86;24956;-85
2022/05/11 08:20:14;;;;;;;;;;;;;;;22.17;66.39;98232.25;1659250;86;22183;-84
2022/05/11 08:22:42;;;;;;;;;;;;;;;22.29;65.54;98233.44;1639038;86;26048;-85
2022/05/11 08:25:09;;;;;;;;;;;;;;;22.39;64.69;98236.63;1666222;86;24600;-84
2022/05/11 08:27:35;;;;;;;;;;;;;;;22.46;63.61;98226.88;1658882;85;20294;-84
2022/05/11 08:35:31;;;;;;;;;;;;;;;22.73;61.58;98232.04;1648288;87;26061;-84
2022/05/11 08:37:57;;;;;;;;;;;;;;;22.84;60.81;98232.37;1661202;86;24520;-85
2022/05/11 08:40:37;;;;;;;;;;;;;;;22.89;59.67;98229.95;1641432;86;20742;-85
2022/05/11 08:43:05;;;;;;;;;;;;;;;22.92;58.33;98229.56;1658601;86;25599;-84
2022/05/11 08:45:33;;;;;;;;;;;;;;;23.00;57.55;98233.13;1640291;86;21975;-85
2022/05/11 08:48:02;;;;;;;;;;;;;;;23.07;57.31;98240.70;1636959;86;27028;-84
2022/05/11 08:50:30;;;;;;;;;;;;;;;23.15;56.87;98237.38;1648222;87;24435;-85
2022/05/11 08:53:02;;;;;;;;;;;;;;;23.21;57.06;98243.30;1648243;85;20204;-85
2022/05/11 08:55:39;;;;;;;;;;;;;;;23.30;56.79;98235.46;1647885;86;24976;-85
2022/05/11 08:58:06;;;;;;;;;;;;;;;23.37;56.07;98235.52;1647338;87;21994;-84
2022/05/11 09:00:33;;;;;;;;;;;;;;;23.41;54.97;98235.45;1634360;87;26067;-84
2022/05/11 09:03:01;;;;;;;;;;;;;;;23.48;54.53;98228.86;1637930;87;24682;-84
2022/05/11 09:05:29;;;;;;;;;;;;;;;23.52;54.24;98231.45;1635835;87;20336;-84
2022/05/11 09:07:55;;;;;;;;;;;;;;;23.58;54.08;98228.83;1640289;87;25018;-84
2022/05/11 09:10:23;;;;;;;;;;;;;;;23.66;53.58;98223.36;1634729;87;22056;-84
2022/05/11 09:13:09;;;;;;;;;;;;;;;23.71;52.83;98231.61;1640470;87;26081;-84
2022/05/11 09:15:50;;;;;;;;;;;;;;;23.71;52.13;98228.94;1633250;87;25216;-84
2022/05/11 09:18:16;;;;;;;;;;;;;;;23.73;51.37;98228.21;1646439;87;20264;-84
2022/05/11 09:20:47;;;;;;;;;;;;;;;23.84;51.33;98235.40;1648133;86;24980;-84
2022/05/11 09:23:13;;;;;;;;;;;;;;;23.89;51.13;98235.63;1645240;87;21700;-84
2022/05/11 09:25:41;;;;;;;;;;;;;;;23.96;50.92;98238.64;1646312;86;26028;-85
2022/05/11 09:28:15;;;;;;;;;;;;;;;23.98;50.26;98245.14;1631246;87;24508;-84
2022/05/11 09:30:42;;;;;;;;;;;;;;;23.96;49.82;98243.16;1630908;87;20272;-84
2022/05/11 09:33:18;;;;;;;;;;;;;;;23.96;49.56;98242.66;1641187;86;25123;-84
2022/05/11 09:35:49;;;;;;;;;;;;;;;24.01;49.50;98237.54;1648675;86;22817;-84
2022/05/11 09:38:17;;;;;;;;;;;;;;;24.08;49.46;98237.59;1647717;86;25951;-84
2022/05/11 09:40:51;;;;;;;;;;;;;;;24.13;49.13;98238.64;1650485;86;25117;-84
2022/05/11 09:43:28;;;;;;;;;;;;;;;24.18;49.06;98231.39;1647125;86;20285;-84
2022/05/11 09:45:54;;;;;;;;;;;;;;;24.25;49.15;98236.78;1646846;86;24951;-84
2022/05/11 09:48:22;;;;;;;;;;;;;;;24.30;48.83;98237.83;1645574;86;22034;-84
2022/05/11 09:50:53;;;;;;;;;;;;;;;24.34;48.87;98225.70;1644477;86;26719;-84
2022/05/11 09:53:30;;;;;;;;;;;;;;;24.37;48.64;98233.86;1649640;86;24462;-84
2022/05/11 09:55:56;;;;;;;;;;;;;;;24.41;48.13;98233.25;1643722;86;20293;-84
2022/05/11 09:58:28;;;;;;;;;;;;;;;24.45;47.60;98230.99;1645236;86;20751;-84
2022/05/11 10:00:56;;;;;;;;;;;;;;;24.46;47.13;98231.31;1640444;86;22197;-84
2022/05/11 10:03:26;;;;;;;;;;;;;;;24.47;46.79;98227.11;1638773;86;26668;-84
2022/05/11 10:05:53;;;;;;;;;;;;;;;24.45;46.35;98225.13;1647347;86;24556;-84
2022/05/11 10:08:32;;;;;;;;;;;;;;;24.49;46.41;98223.70;1643937;86;20293;-84
2022/05/11 10:11:03;;;;;;;;;;;;;;;24.52;46.19;98220.64;1653325;86;25077;-84
2022/05/11 10:13:37;;;;;;;;;;;;;;;24.57;45.92;98218.18;1651783;86;23076;-84
2022/05/11 10:21:50;;;;;;;;;;;;;;;24.71;45.46;98211.00;1646198;86;20267;-84
2022/05/11 10:24:23;;;;;;;;;;;;;;;24.76;45.47;98210.42;1649942;86;24991;-84
2022/05/11 10:26:57;;;;;;;;;;;;;;;24.76;45.04;98208.57;1646311;86;22086;-84
2022/05/11 10:29:34;;;;;;;;;;;;;;;24.74;44.64;98208.45;1639566;86;25996;-85
2022/05/11 10:32:01;;;;;;;;;;;;;;;24.69;43.96;98204.22;1648003;85;25366;-84
2022/05/11 10:34:35;;;;;;;;;;;;;;;24.69;43.47;98212.25;1641010;86;20306;-84
2022/05/11 10:37:15;;;;;;;;;;;;;;;24.72;43.38;98209.16;1644943;87;25797;-84
2022/05/11 10:39:41;;;;;;;;;;;;;;;24.86;43.60;98208.17;1642757;87;23138;-84
2022/05/11 10:42:27;;;;;;;;;;;;;;;24.95;43.75;98201.11;1644331;86;26106;-84
2022/05/11 10:44:58;;;;;;;;;;;;;;;25.03;43.59;98204.11;1644831;87;23967;-84
2022/05/11 10:47:35;;;;;;;;;;;;;;;25.11;43.60;98208.43;1648625;87;20231;-85
2022/05/11 10:50:06;;;;;;;;;;;;;;;25.05;43.09;98207.91;1642968;87;24982;-84
2022/05/11 10:52:40;;;;;;;;;;;;;;;25.10;43.18;98202.25;1642452;86;22087;-85
2022/05/11 10:55:13;;;;;;;;;;;;;;;25.13;42.98;98197.83;1645035;87;26066;-85
2022/05/11 10:57:50;;;;;;;;;;;;;;;25.17;42.68;98199.06;1643188;87;24475;-85
2022/05/11 11:00:18;;;;;;;;;;;;;;;25.20;42.26;98195.96;1646899;87;20163;-84
2022/05/11 11:03:01;;;;;;;;;;;;;;;25.21;41.90;98202.97;1640652;87;24957;-85
2022/05/11 11:05:31;;;;;;;;;;;;;;;25.18;41.69;98207.93;1646228;87;22856;-84
2022/05/11 11:07:59;;;;;;;;;;;;;;;25.16;41.64;98193.91;1645709;87;26144;-84
2022/05/11 11:10:26;;;;;;;;;;;;;;;25.12;41.45;98202.87;1648252;87;24508;-84
2022/05/11 11:13:00;;;;;;;;;;;;;;;25.12;41.26;98202.05;1644202;87;20282;-84
2022/05/11 11:15:28;;;;;;;;;;;;;;;25.11;40.98;98201.73;1644121;86;24997;-84
2022/05/11 11:17:56;;;;;;;;;;;;;;;25.09;40.77;98191.25;1645929;87;22008;-84
2022/05/11 11:20:23;;;;;;;;;;;;;;;25.10;40.57;98188.86;1647214;86;26599;-84
2022/05/11 11:23:08;;;;;;;;;;;;;;;25.19;40.74;98190.83;1646706;87;24578;-84
2022/05/11 11:25:51;;;;;;;;;;;;;;;25.29;40.96;98178.67;1645700;86;20354;-85
2022/05/11 11:28:19;;;;;;;;;;;;;;;25.38;40.77;98178.77;1646061;87;25246;-84
2022/05/11 11:31:02;;;;;;;;;;;;;;;25.36;40.14;98188.88;1647485;87;22050;-84
2022/05/11 11:33:34;;;;;;;;;;;;;;;25.38;39.74;98181.95;1645899;87;26086;-85
2022/05/11 11:36:01;;;;;;;;;;;;;;;25.43;39.60;98178.96;1644469;86;24488;-85
2022/05/11 11:38:38;;;;;;;;;;;;;;;25.51;39.44;98184.63;1645835;87;20334;-84
2022/05/11 11:41:06;;;;;;;;;;;;;;;25.60;39.36;98173.20;1645748;87;25933;-84
2022/05/11 11:43:40;;;;;;;;;;;;;;;25.70;39.26;98181.11;1642682;87;22133;-85
2022/05/11 11:46:07;;;;;;;;;;;;;;;25.75;39.01;98175.95;1640217;87;26051;-85
2022/05/11 11:48:35;;;;;;;;;;;;;;;25.73;38.59;98175.35;1646183;87;24516;-85
2022/05/11 11:51:05;;;;;;;;;;;;;;;25.71;38.36;98171.22;1645875;87;20164;-85
2022/05/11 11:53:33;;;;;;;;;;;;;;;25.75;38.29;98171.92;1644560;85;25045;-84
2022/05/11 11:56:20;;;;;;;;;;;;;;;25.79;38.26;98170.50;1645636;87;22060;-85
2022/05/11 11:58:46;;;;;;;;;;;;;;;25.91;38.29;98169.33;1645180;87;26168;-85
2022/05/11 12:01:15;;;;;;;;;;;;;;;25.95;38.15;98162.50;1644976;86;24428;-85
2022/05/11 12:03:43;;;;;;;;;;;;;;;26.00;38.27;98161.86;1643874;87;20240;-85
2022/05/11 12:17:26;;;;;;;;;;;;;;;25.91;37.28;98154.58;1644547;87;20627;-84
2022/05/11 12:19:59;;;;;;;;;;;;;;;25.81;36.94;98146.13;1646070;86;25030;-84
2022/05/11 12:22:27;;;;;;;;;;;;;;;25.75;36.81;98150.48;1642156;85;20456;-85
2022/05/11 12:24:58;;;;;;;;;;;;;;;25.76;36.73;98144.09;1646522;87;26079;-84
2022/05/11 12:27:32;;;;;;;;;;;;;;;25.76;36.47;98146.77;1620288;87;26068;-85
2022/05/11 12:30:00;;;;;;;;;;;;;;;25.79;36.40;98138.84;1644538;87;20310;-85
2022/05/11 12:32:28;;;;;;;;;;;;;;;25.80;36.29;98141.28;1639884;85;25104;-84
2022/05/11 12:34:58;;;;;;;;;;;;;;;25.86;36.29;98144.19;1615421;88;22074;-85
2022/05/11 12:37:31;;;;;;;;;;;;;;;25.97;36.38;98142.98;1611050;88;26613;-85
2022/05/11 12:39:59;;;;;;;;;;;;;;;26.10;36.38;98134.07;1609142;86;24462;-85
2022/05/11 12:42:29;;;;;;;;;;;;;;;26.26;36.37;98134.13;1606477;88;20318;-84
2022/05/11 12:44:57;;;;;;;;;;;;;;;26.44;36.61;98131.05;1609050;87;25059;-85
2022/05/11 12:47:25;;;;;;;;;;;;;;;26.56;36.19;98133.87;1608014;88;22102;-84
2022/05/11 12:49:56;;;;;;;;;;;;;;;26.54;35.70;98138.63;1611524;88;26624;-84
2022/05/11 12:52:24;;;;;;;;;;;;;;;26.50;35.65;98138.76;1614271;88;24482;-85
2022/05/11 12:54:57;;;;;;;;;;;;;;;26.42;35.39;98133.63;1605601;88;20205;-84
2022/05/11 12:57:27;;;;;;;;;;;;;;;26.42;35.34;98138.48;1612129;86;25830;-84
2022/05/11 12:59:55;;;;;;;;;;;;;;;26.47;35.40;98140.00;1609189;88;22253;-85
2022/05/11 13:02:27;;;;;;;;;;;;;;;26.54;35.73;98134.08;1610455;88;26786;-85
2022/05/11 13:04:55;;;;;;;;;;;;;;;26.62;35.99;98125.75;1614369;88;25283;-85
2022/05/11 13:07:23;;;;;;;;;;;;;;;26.69;36.06;98124.89;1605796;88;20263;-85
2022/05/11 13:09:50;;;;;;;;;;;;;;;26.67;35.86;98121.62;1610923;88;24959;-85
2022/05/11 13:12:17;;;;;;;;;;;;;;;26.72;35.64;98118.59;1605573;88;22213;-85
2022/05/11 13:14:45;;;;;;;;;;;;;;;26.74;35.40;98117.83;1605675;88;26093;-84
2022/05/11 13:17:12;;;;;;;;;;;;;;;26.74;35.35;98117.83;1607471;88;24461;-84
2022/05/11 13:19:39;;;;;;;;;;;;;;;26.77;35.00;98117.92;1614377;88;20288;-85
2022/05/11 13:22:07;;;;;;;;;;;;;;;26.84;35.09;98108.76;1614838;88;24989;-84
2022/05/11 13:24:48;;;;;;;;;;;;;;;26.87;34.63;98109.72;1612567;88;22653;-85
2022/05/11 13:27:25;;;;;;;;;;;;;;;26.85;34.38;98112.27;1611047;88;27143;-85
2022/05/11 13:29:52;;;;;;;;;;;;;;;26.91;34.36;98104.72;1604812;88;24520;-85
2022/05/11 13:32:20;;;;;;;;;;;;;;;26.95;34.41;98102.71;1607003;86;20339;-85
2022/05/11 13:34:46;;;;;;;;;;;;;;;27.09;34.45;98103.44;1646585;86;25050;-85
2022/05/11 13:37:23;;;;;;;;;;;;;;;27.10;34.11;98095.69;1645677;86;20841;-85